sensor_id;sensor_type;location;lat;lon;timestamp;pressure;altitude;pressure_sealevel;temperature;humidity
45523;BME280;31254;51.680;5.394;2023-05-29T00:01:45;102330.66;;;12.49;75.47
45523;BME280;31254;51.680;5.394;2023-05-29T00:04:14;102331.41;;;12.51;75.32
45523;BME280;31254;51.680;5.394;2023-05-29T00:06:41;102370.72;;;12.61;75.26
45523;BME280;31254;51.680;5.394;2023-05-29T00:09:08;102333.91;;;12.31;75.23
45523;BME280;31254;51.680;5.394;2023-05-29T00:11:35;102349.31;;;12.32;75.39
45523;BME280;31254;51.680;5.394;2023-05-29T00:14:02;102375.69;;;12.44;75.33
45523;BME280;31254;51.680;5.394;2023-05-29T00:16:31;102377.94;;;12.39;75.26
45523;BME280;31254;51.680;5.394;2023-05-29T00:18:58;102380.94;;;12.36;75.02
45523;BME280;31254;51.680;5.394;2023-05-29T00:21:27;102348.22;;;12.12;75.03
45523;BME280;31254;51.680;5.394;2023-05-29T00:23:54;102373.09;;;12.20;74.92
45523;BME280;31254;51.680;5.394;2023-05-29T00:26:21;102401.97;;;12.24;74.12
45523;BME280;31254;51.680;5.394;2023-05-29T00:28:49;102356.66;;;11.98;74.65
45523;BME280;31254;51.680;5.394;2023-05-29T00:31:16;102386.28;;;12.15;74.87
45523;BME280;31254;51.680;5.394;2023-05-29T00:33:45;102386.75;;;12.09;74.88
45523;BME280;31254;51.680;5.394;2023-05-29T00:36:12;102374.94;;;11.97;75.32
45523;BME280;31254;51.680;5.394;2023-05-29T00:38:39;102396.47;;;12.02;74.91
45523;BME280;31254;51.680;5.394;2023-05-29T00:41:06;102396.81;;;11.97;75.18
45523;BME280;31254;51.680;5.394;2023-05-29T00:43:32;102355.47;;;11.66;75.12
45523;BME280;31254;51.680;5.394;2023-05-29T00:46:03;102353.59;;;11.67;75.28
45523;BME280;31254;51.680;5.394;2023-05-29T00:48:29;102371.84;;;11.66;75.06
45523;BME280;31254;51.680;5.394;2023-05-29T00:50:56;102401.56;;;11.82;75.22
45523;BME280;31254;51.680;5.394;2023-05-29T00:53:23;102405.69;;;11.77;75.66
45523;BME280;31254;51.680;5.394;2023-05-29T00:55:51;102410.63;;;11.71;75.52
45523;BME280;31254;51.680;5.394;2023-05-29T00:58:20;102404.53;;;11.68;75.55
45523;BME280;31254;51.680;5.394;2023-05-29T01:00:47;102369.28;;;11.41;75.65
45523;BME280;31254;51.680;5.394;2023-05-29T01:03:14;102411.06;;;11.54;75.75
45523;BME280;31254;51.680;5.394;2023-05-29T01:05:43;102411.19;;;11.52;75.92
45523;BME280;31254;51.680;5.394;2023-05-29T01:08:10;102429.34;;;11.53;75.90
45523;BME280;31254;51.680;5.394;2023-05-29T01:10:37;102427.69;;;11.51;75.85
45523;BME280;31254;51.680;5.394;2023-05-29T01:13:09;102392.81;;;11.30;75.95
45523;BME280;31254;51.680;5.394;2023-05-29T01:23:57;102421.25;;;11.28;76.38
45523;BME280;31254;51.680;5.394;2023-05-29T01:29:19;102424.44;;;11.22;76.82
45523;BME280;31254;51.680;5.394;2023-05-29T01:31:49;102423.59;;;11.21;77.05
45523;BME280;31254;51.680;5.394;2023-05-29T01:34:17;102421.84;;;11.20;76.90
45523;BME280;31254;51.680;5.394;2023-05-29T01:36:43;102380.22;;;10.92;76.76
45523;BME280;31254;51.680;5.394;2023-05-29T01:39:13;102399.50;;;11.02;76.83
45523;BME280;31254;51.680;5.394;2023-05-29T01:41:40;102313.22;;;10.51;76.99
45523;BME280;31254;51.680;5.394;2023-05-29T01:44:08;102412.72;;;11.08;76.87
45523;BME280;31254;51.680;5.394;2023-05-29T01:46:37;102413.81;;;11.06;76.87
45523;BME280;31254;51.680;5.394;2023-05-29T01:49:07;102415.56;;;11.07;76.25
45523;BME280;31254;51.680;5.394;2023-05-29T01:51:37;102414.94;;;11.03;76.53
45523;BME280;31254;51.680;5.394;2023-05-29T01:54:04;102414.47;;;10.96;76.29
45523;BME280;31254;51.680;5.394;2023-05-29T01:56:34;102436.00;;;11.01;76.05
45523;BME280;31254;51.680;5.394;2023-05-29T01:59:02;102418.00;;;10.98;76.19
45523;BME280;31254;51.680;5.394;2023-05-29T02:01:31;102386.81;;;10.77;76.13
45523;BME280;31254;51.680;5.394;2023-05-29T02:04:01;102426.63;;;10.92;76.36
45523;BME280;31254;51.680;5.394;2023-05-29T02:06:28;102369.59;;;10.64;76.06
45523;BME280;31254;51.680;5.394;2023-05-29T02:08:55;102366.56;;;10.55;76.40
45523;BME280;31254;51.680;5.394;2023-05-29T02:11:22;102425.69;;;10.81;76.47
45523;BME280;31254;51.680;5.394;2023-05-29T02:13:49;102367.25;;;10.46;76.31
45523;BME280;31254;51.680;5.394;2023-05-29T02:16:16;102418.06;;;10.73;76.66
45523;BME280;31254;51.680;5.394;2023-05-29T02:18:43;102358.75;;;10.38;76.67
45523;BME280;31254;51.680;5.394;2023-05-29T02:21:10;102421.47;;;10.64;76.96
45523;BME280;31254;51.680;5.394;2023-05-29T02:23:38;102371.84;;;10.33;77.03
45523;BME280;31254;51.680;5.394;2023-05-29T02:26:05;102383.63;;;10.33;76.85
45523;BME280;31254;51.680;5.394;2023-05-29T02:28:31;102388.97;;;10.35;77.08
45523;BME280;31254;51.680;5.394;2023-05-29T02:30:58;102435.75;;;10.54;76.65
45523;BME280;31254;51.680;5.394;2023-05-29T02:33:25;102435.22;;;10.49;77.27
45523;BME280;31254;51.680;5.394;2023-05-29T02:35:54;102436.34;;;10.47;77.42
45523;BME280;31254;51.680;5.394;2023-05-29T02:38:21;102435.56;;;10.45;77.13
45523;BME280;31254;51.680;5.394;2023-05-29T02:40:47;102450.09;;;10.45;76.94
45523;BME280;31254;51.680;5.394;2023-05-29T02:43:14;102452.19;;;10.41;77.00
45523;BME280;31254;51.680;5.394;2023-05-29T02:45:41;102446.84;;;10.40;77.40
45523;BME280;31254;51.680;5.394;2023-05-29T02:48:08;102446.25;;;10.35;77.75
45523;BME280;31254;51.680;5.394;2023-05-29T02:50:35;102446.38;;;10.33;77.28
45523;BME280;31254;51.680;5.394;2023-05-29T02:53:02;102411.22;;;10.16;77.42
45523;BME280;31254;51.680;5.394;2023-05-29T02:55:29;102442.00;;;10.31;78.13
45523;BME280;31254;51.680;5.394;2023-05-29T02:57:58;102399.53;;;10.01;78.25
45523;BME280;31254;51.680;5.394;2023-05-29T03:00:26;102378.28;;;9.80;78.00
45523;BME280;31254;51.680;5.394;2023-05-29T03:02:55;102447.34;;;10.19;78.40
45523;BME280;31254;51.680;5.394;2023-05-29T03:05:22;102407.59;;;9.89;78.39
45523;BME280;31254;51.680;5.394;2023-05-29T03:07:52;102449.41;;;10.16;78.39
45523;BME280;31254;51.680;5.394;2023-05-29T03:10:19;102407.16;;;9.96;78.41
45523;BME280;31254;51.680;5.394;2023-05-29T03:12:48;102440.34;;;10.15;78.65
45523;BME280;31254;51.680;5.394;2023-05-29T03:15:15;102436.00;;;10.13;78.22
45523;BME280;31254;51.680;5.394;2023-05-29T03:17:43;102406.72;;;9.89;78.69
45523;BME280;31254;51.680;5.394;2023-05-29T03:20:10;102405.00;;;9.88;78.42
45523;BME280;31254;51.680;5.394;2023-05-29T03:22:37;102443.38;;;10.11;78.35
45523;BME280;31254;51.680;5.394;2023-05-29T03:25:04;102437.50;;;10.04;78.67
45523;BME280;31254;51.680;5.394;2023-05-29T03:27:32;102430.94;;;9.94;78.71
45523;BME280;31254;51.680;5.394;2023-05-29T03:29:59;102448.50;;;10.02;78.52
45523;BME280;31254;51.680;5.394;2023-05-29T03:32:25;102409.22;;;9.79;78.50
45523;BME280;31254;51.680;5.394;2023-05-29T03:34:52;102406.28;;;9.82;78.63
45523;BME280;31254;51.680;5.394;2023-05-29T03:37:20;102419.91;;;9.82;78.79
45523;BME280;31254;51.680;5.394;2023-05-29T03:39:46;102445.34;;;9.96;78.75
45523;BME280;31254;51.680;5.394;2023-05-29T03:42:14;102446.00;;;9.99;78.81
45523;BME280;31254;51.680;5.394;2023-05-29T03:44:42;102448.06;;;9.96;79.32
45523;BME280;31254;51.680;5.394;2023-05-29T03:47:08;102463.44;;;9.97;79.37
45523;BME280;31254;51.680;5.394;2023-05-29T03:49:36;102448.06;;;9.96;79.47
45523;BME280;31254;51.680;5.394;2023-05-29T03:52:03;102453.41;;;9.97;78.86
45523;BME280;31254;51.680;5.394;2023-05-29T03:54:30;102462.25;;;10.01;78.82
45523;BME280;31254;51.680;5.394;2023-05-29T03:56:56;102420.78;;;9.83;78.78
45523;BME280;31254;51.680;5.394;2023-05-29T03:59:23;102463.56;;;10.08;78.89
45523;BME280;31254;51.680;5.394;2023-05-29T04:01:50;102462.47;;;10.11;79.02
45523;BME280;31254;51.680;5.394;2023-05-29T04:04:16;102470.53;;;10.12;79.04
45523;BME280;31254;51.680;5.394;2023-05-29T04:06:43;102443.63;;;9.95;79.07
45523;BME280;31254;51.680;5.394;2023-05-29T04:09:11;102464.34;;;10.10;78.61
45523;BME280;31254;51.680;5.394;2023-05-29T04:11:38;102477.34;;;10.19;79.00
45523;BME280;31254;51.680;5.394;2023-05-29T04:14:08;102478.13;;;10.34;78.29
45523;BME280;31254;51.680;5.394;2023-05-29T04:16:35;102441.88;;;10.19;77.85
45523;BME280;31254;51.680;5.394;2023-05-29T04:19:02;102412.94;;;10.04;77.89
45523;BME280;31254;51.680;5.394;2023-05-29T04:21:29;102437.06;;;10.23;77.72
45523;BME280;31254;51.680;5.394;2023-05-29T04:23:55;102471.03;;;10.45;77.48
45523;BME280;31254;51.680;5.394;2023-05-29T04:26:22;102479.31;;;10.56;77.59
45523;BME280;31254;51.680;5.394;2023-05-29T04:28:53;102446.44;;;10.32;77.58
45523;BME280;31254;51.680;5.394;2023-05-29T04:31:24;102488.28;;;10.58;78.08
45523;BME280;31254;51.680;5.394;2023-05-29T04:33:53;102460.78;;;10.48;77.45
45523;BME280;31254;51.680;5.394;2023-05-29T04:36:25;102437.84;;;10.38;77.73
45523;BME280;31254;51.680;5.394;2023-05-29T04:38:55;102468.44;;;10.93;76.46
45523;BME280;31254;51.680;5.394;2023-05-29T04:41:24;102452.19;;;11.52;74.68
45523;BME280;31254;51.680;5.394;2023-05-29T04:43:56;102478.84;;;12.33;72.69
45523;BME280;31254;51.680;5.394;2023-05-29T04:46:24;102450.09;;;12.50;71.62
45523;BME280;31254;51.680;5.394;2023-05-29T04:48:52;102474.22;;;12.44;71.89
45523;BME280;31254;51.680;5.394;2023-05-29T04:51:22;102479.16;;;12.17;72.80
45523;BME280;31254;51.680;5.394;2023-05-29T04:53:50;102442.34;;;11.85;73.37
45523;BME280;31254;51.680;5.394;2023-05-29T04:56:18;102481.56;;;12.33;72.77
45523;BME280;31254;51.680;5.394;2023-05-29T04:58:45;102462.72;;;13.30;69.50
45523;BME280;31254;51.680;5.394;2023-05-29T05:01:12;102476.94;;;14.00;67.41
45523;BME280;31254;51.680;5.394;2023-05-29T05:03:41;102479.44;;;14.55;65.94
45523;BME280;31254;51.680;5.394;2023-05-29T05:06:09;102486.22;;;15.22;63.78
45523;BME280;31254;51.680;5.394;2023-05-29T05:08:36;102466.50;;;15.77;62.08
45523;BME280;31254;51.680;5.394;2023-05-29T05:11:03;102494.84;;;16.36;60.40
45523;BME280;31254;51.680;5.394;2023-05-29T05:13:30;102490.94;;;16.19;60.58
45523;BME280;31254;51.680;5.394;2023-05-29T05:15:58;102502.59;;;16.70;59.38
45523;BME280;31254;51.680;5.394;2023-05-29T05:18:24;102497.03;;;16.90;58.29
45523;BME280;31254;51.680;5.394;2023-05-29T05:20:51;102518.31;;;17.25;57.46
45523;BME280;31254;51.680;5.394;2023-05-29T05:23:19;102467.97;;;16.95;57.03
45523;BME280;31254;51.680;5.394;2023-05-29T05:25:46;102509.88;;;17.54;55.97
45523;BME280;31254;51.680;5.394;2023-05-29T05:28:13;102503.69;;;17.88;55.13
45523;BME280;31254;51.680;5.394;2023-05-29T05:30:40;102506.19;;;18.44;53.77
45523;BME280;31254;51.680;5.394;2023-05-29T05:33:14;102516.66;;;18.32;53.48
45523;BME280;31254;51.680;5.394;2023-05-29T05:35:41;102487.13;;;17.88;53.63
45523;BME280;31254;51.680;5.394;2023-05-29T05:38:10;102484.13;;;18.00;53.68
45523;BME280;31254;51.680;5.394;2023-05-29T05:40:37;102507.19;;;18.17;52.58
45523;BME280;31254;51.680;5.394;2023-05-29T05:43:04;102503.22;;;17.93;53.57
45523;BME280;31254;51.680;5.394;2023-05-29T05:45:34;102509.00;;;17.26;54.58
45523;BME280;31254;51.680;5.394;2023-05-29T05:48:05;102503.00;;;17.59;53.77
45523;BME280;31254;51.680;5.394;2023-05-29T05:50:32;102503.16;;;17.57;53.40
45523;BME280;31254;51.680;5.394;2023-05-29T05:52:59;102503.28;;;17.83;53.28
45523;BME280;31254;51.680;5.394;2023-05-29T05:55:26;102495.63;;;17.77;52.76
45523;BME280;31254;51.680;5.394;2023-05-29T05:57:54;102493.03;;;17.94;52.40
45523;BME280;31254;51.680;5.394;2023-05-29T06:00:23;102447.97;;;17.57;52.15
45523;BME280;31254;51.680;5.394;2023-05-29T06:02:50;102471.09;;;17.74;52.17
45523;BME280;31254;51.680;5.394;2023-05-29T06:05:18;102495.00;;;18.45;50.98
45523;BME280;31254;51.680;5.394;2023-05-29T06:07:47;102506.28;;;18.08;51.58
45523;BME280;31254;51.680;5.394;2023-05-29T06:10:16;102517.47;;;17.70;51.88
45523;BME280;31254;51.680;5.394;2023-05-29T06:12:43;102513.09;;;17.86;51.80
45523;BME280;31254;51.680;5.394;2023-05-29T06:15:10;102511.50;;;18.37;50.18
45523;BME280;31254;51.680;5.394;2023-05-29T06:17:37;102526.88;;;18.84;49.28
45523;BME280;31254;51.680;5.394;2023-05-29T06:20:04;102495.41;;;18.59;49.41
45523;BME280;31254;51.680;5.394;2023-05-29T06:22:37;102521.44;;;18.74;48.81
45523;BME280;31254;51.680;5.394;2023-05-29T06:25:04;102527.31;;;19.06;48.53
45523;BME280;31254;51.680;5.394;2023-05-29T06:27:34;102528.78;;;18.66;49.20
45523;BME280;31254;51.680;5.394;2023-05-29T06:30:04;102484.72;;;19.25;47.89
45523;BME280;31254;51.680;5.394;2023-05-29T06:32:31;102533.59;;;19.59;46.60
45523;BME280;31254;51.680;5.394;2023-05-29T06:34:58;102527.63;;;19.96;45.15
45523;BME280;31254;51.680;5.394;2023-05-29T06:37:25;102528.97;;;19.84;45.71
45523;BME280;31254;51.680;5.394;2023-05-29T06:39:52;102486.06;;;19.88;45.20
45523;BME280;31254;51.680;5.394;2023-05-29T06:42:19;102527.28;;;20.16;45.08
45523;BME280;31254;51.680;5.394;2023-05-29T06:44:46;102540.44;;;20.38;44.31
45523;BME280;31254;51.680;5.394;2023-05-29T06:47:12;102525.19;;;20.26;44.17
45523;BME280;31254;51.680;5.394;2023-05-29T06:49:40;102521.56;;;19.93;45.39
45523;BME280;31254;51.680;5.394;2023-05-29T06:52:07;102525.88;;;20.12;44.08
45523;BME280;31254;51.680;5.394;2023-05-29T06:54:34;102503.50;;;19.72;44.38
45523;BME280;31254;51.680;5.394;2023-05-29T06:57:01;102528.66;;;20.44;43.62
45523;BME280;31254;51.680;5.394;2023-05-29T06:59:37;102505.06;;;21.21;41.99
45523;BME280;31254;51.680;5.394;2023-05-29T07:02:06;102504.22;;;21.21;41.80
45523;BME280;31254;51.680;5.394;2023-05-29T07:04:36;102515.94;;;21.94;41.11
45523;BME280;31254;51.680;5.394;2023-05-29T07:07:02;102480.25;;;22.20;40.46
45523;BME280;31254;51.680;5.394;2023-05-29T07:09:29;102519.75;;;22.39;40.11
45523;BME280;31254;51.680;5.394;2023-05-29T07:11:56;102496.75;;;22.22;39.69
45523;BME280;31254;51.680;5.394;2023-05-29T07:14:25;102508.75;;;22.22;40.04
45523;BME280;31254;51.680;5.394;2023-05-29T07:16:51;102523.50;;;21.53;40.37
45523;BME280;31254;51.680;5.394;2023-05-29T07:19:18;102525.78;;;21.50;40.50
45523;BME280;31254;51.680;5.394;2023-05-29T07:21:49;102517.03;;;22.07;39.46
45523;BME280;31254;51.680;5.394;2023-05-29T07:24:19;102507.69;;;21.46;40.32
45523;BME280;31254;51.680;5.394;2023-05-29T07:26:46;102455.00;;;21.37;39.97
45523;BME280;31254;51.680;5.394;2023-05-29T07:29:16;102524.06;;;22.41;39.30
45523;BME280;31254;51.680;5.394;2023-05-29T07:31:44;102529.78;;;23.38;37.60
45523;BME280;31254;51.680;5.394;2023-05-29T07:34:11;102500.88;;;22.79;37.60
45523;BME280;31254;51.680;5.394;2023-05-29T07:37:04;102539.38;;;22.14;38.96
45523;BME280;31254;51.680;5.394;2023-05-29T07:39:32;102530.91;;;22.07;38.54
45523;BME280;31254;51.680;5.394;2023-05-29T07:42:00;102539.25;;;21.61;39.51
45523;BME280;31254;51.680;5.394;2023-05-29T07:44:30;102525.31;;;21.30;39.39
45523;BME280;31254;51.680;5.394;2023-05-29T07:46:57;102519.44;;;21.64;38.93
45523;BME280;31254;51.680;5.394;2023-05-29T07:49:23;102507.78;;;21.69;38.86
45523;BME280;31254;51.680;5.394;2023-05-29T07:51:54;102537.53;;;22.06;38.51
45523;BME280;31254;51.680;5.394;2023-05-29T07:54:23;102547.72;;;21.91;39.00
45523;BME280;31254;51.680;5.394;2023-05-29T07:56:50;102543.88;;;22.15;38.63
45523;BME280;31254;51.680;5.394;2023-05-29T07:59:17;102520.75;;;22.00;37.96
45523;BME280;31254;51.680;5.394;2023-05-29T08:01:44;102537.97;;;21.95;38.26
45523;BME280;31254;51.680;5.394;2023-05-29T08:04:11;102521.28;;;21.72;38.15
45523;BME280;31254;51.680;5.394;2023-05-29T08:06:39;102490.59;;;21.34;38.57
45523;BME280;31254;51.680;5.394;2023-05-29T08:09:09;102551.81;;;21.41;38.49
45523;BME280;31254;51.680;5.394;2023-05-29T08:11:37;102538.47;;;21.36;38.78
45523;BME280;31254;51.680;5.394;2023-05-29T08:14:03;102523.69;;;20.96;39.27
45523;BME280;31254;51.680;5.394;2023-05-29T08:16:30;102527.16;;;21.06;39.23
45523;BME280;31254;51.680;5.394;2023-05-29T08:18:58;102556.22;;;21.27;39.46
45523;BME280;31254;51.680;5.394;2023-05-29T08:21:27;102552.63;;;21.58;38.40
45523;BME280;31254;51.680;5.394;2023-05-29T08:23:54;102561.84;;;21.81;38.58
45523;BME280;31254;51.680;5.394;2023-05-29T08:26:21;102559.78;;;22.30;37.43
45523;BME280;31254;51.680;5.394;2023-05-29T08:28:48;102546.41;;;22.48;37.05
45523;BME280;31254;51.680;5.394;2023-05-29T08:31:15;102537.38;;;22.31;37.48
45523;BME280;31254;51.680;5.394;2023-05-29T08:33:44;102551.63;;;22.05;37.71
45523;BME280;31254;51.680;5.394;2023-05-29T08:36:11;102559.00;;;21.89;37.69
45523;BME280;31254;51.680;5.394;2023-05-29T08:38:38;102528.84;;;21.55;38.19
45523;BME280;31254;51.680;5.394;2023-05-29T08:41:07;102535.41;;;21.62;38.37
45523;BME280;31254;51.680;5.394;2023-05-29T08:43:34;102567.53;;;21.57;38.66
45523;BME280;31254;51.680;5.394;2023-05-29T08:46:02;102552.13;;;21.85;38.17
45523;BME280;31254;51.680;5.394;2023-05-29T08:48:32;102564.13;;;22.32;37.63
45523;BME280;31254;51.680;5.394;2023-05-29T08:51:02;102566.19;;;22.07;38.23
45523;BME280;31254;51.680;5.394;2023-05-29T08:53:29;102571.50;;;21.94;38.56
45523;BME280;31254;51.680;5.394;2023-05-29T08:55:59;102544.81;;;22.07;38.09
45523;BME280;31254;51.680;5.394;2023-05-29T08:58:26;102536.97;;;21.88;38.63
45523;BME280;31254;51.680;5.394;2023-05-29T09:00:53;102571.00;;;21.90;38.65
45523;BME280;31254;51.680;5.394;2023-05-29T09:03:22;102574.91;;;21.33;39.34
45523;BME280;31254;51.680;5.394;2023-05-29T09:05:51;102541.22;;;20.96;39.61
45523;BME280;31254;51.680;5.394;2023-05-29T09:08:20;102565.06;;;21.22;39.72
45523;BME280;31254;51.680;5.394;2023-05-29T09:10:47;102511.66;;;20.56;40.10
45523;BME280;31254;51.680;5.394;2023-05-29T09:13:16;102567.06;;;20.97;40.18
45523;BME280;31254;51.680;5.394;2023-05-29T09:15:43;102544.53;;;20.92;39.89
45523;BME280;31254;51.680;5.394;2023-05-29T09:18:10;102541.47;;;20.78;40.04
45523;BME280;31254;51.680;5.394;2023-05-29T09:20:38;102562.75;;;20.94;39.96
45523;BME280;31254;51.680;5.394;2023-05-29T09:23:07;102534.69;;;20.56;40.60
45523;BME280;31254;51.680;5.394;2023-05-29T09:25:42;102563.31;;;20.73;41.14
45523;BME280;31254;51.680;5.394;2023-05-29T09:28:12;102576.81;;;20.68;41.30
45523;BME280;31254;51.680;5.394;2023-05-29T09:30:46;102534.53;;;20.50;40.81
45523;BME280;31254;51.680;5.394;2023-05-29T09:33:14;102580.81;;;20.41;41.40
45523;BME280;31254;51.680;5.394;2023-05-29T09:35:47;102566.59;;;20.19;41.69
45523;BME280;31254;51.680;5.394;2023-05-29T09:38:16;102555.31;;;19.88;42.21
45523;BME280;31254;51.680;5.394;2023-05-29T09:40:48;102556.72;;;20.17;41.99
45523;BME280;31254;51.680;5.394;2023-05-29T09:43:17;102565.31;;;19.81;42.89
45523;BME280;31254;51.680;5.394;2023-05-29T09:45:47;102566.38;;;19.45;43.45
45523;BME280;31254;51.680;5.394;2023-05-29T09:48:35;102562.44;;;19.48;43.44
45523;BME280;31254;51.680;5.394;2023-05-29T09:51:02;102567.44;;;19.44;43.91
45523;BME280;31254;51.680;5.394;2023-05-29T09:53:29;102562.25;;;19.49;43.67
45523;BME280;31254;51.680;5.394;2023-05-29T09:55:57;102568.97;;;19.39;44.15
45523;BME280;31254;51.680;5.394;2023-05-29T09:58:26;102542.22;;;19.13;44.26
45523;BME280;31254;51.680;5.394;2023-05-29T10:00:54;102570.16;;;19.36;44.37
45523;BME280;31254;51.680;5.394;2023-05-29T10:03:20;102533.91;;;19.13;44.20
45523;BME280;31254;51.680;5.394;2023-05-29T10:05:54;102552.91;;;19.42;44.40
45523;BME280;31254;51.680;5.394;2023-05-29T10:08:30;102564.63;;;19.36;44.40
45523;BME280;31254;51.680;5.394;2023-05-29T10:11:03;102570.38;;;19.43;44.45
45523;BME280;31254;51.680;5.394;2023-05-29T10:13:41;102556.66;;;19.33;44.49
45523;BME280;31254;51.680;5.394;2023-05-29T10:16:12;102556.63;;;19.25;44.83
45523;BME280;31254;51.680;5.394;2023-05-29T10:18:44;102563.41;;;19.39;44.53
45523;BME280;31254;51.680;5.394;2023-05-29T10:21:16;102544.81;;;19.57;44.64
45523;BME280;31254;51.680;5.394;2023-05-29T10:23:50;102517.56;;;19.79;44.00
45523;BME280;31254;51.680;5.394;2023-05-29T10:26:26;102548.03;;;20.12;43.56
45523;BME280;31254;51.680;5.394;2023-05-29T10:29:05;102554.63;;;19.94;44.16
45523;BME280;31254;51.680;5.394;2023-05-29T10:32:03;102538.88;;;19.95;44.11
45523;BME280;31254;51.680;5.394;2023-05-29T10:34:43;102547.69;;;19.90;44.12
45523;BME280;31254;51.680;5.394;2023-05-29T10:40:09;102540.28;;;19.48;44.04
45523;BME280;31254;51.680;5.394;2023-05-29T10:42:51;102507.41;;;19.45;44.52
45523;BME280;31254;51.680;5.394;2023-05-29T10:50:45;102543.56;;;20.19;43.52
45523;BME280;31254;51.680;5.394;2023-05-29T10:53:17;102546.81;;;19.89;43.87
45523;BME280;31254;51.680;5.394;2023-05-29T10:55:45;102543.25;;;19.63;43.65
45523;BME280;31254;51.680;5.394;2023-05-29T10:58:22;102535.69;;;19.65;44.34
45523;BME280;31254;51.680;5.394;2023-05-29T11:00:52;102510.22;;;19.69;43.70
45523;BME280;31254;51.680;5.394;2023-05-29T11:03:31;102550.13;;;20.01;43.87
45523;BME280;31254;51.680;5.394;2023-05-29T11:06:06;102535.59;;;19.99;43.70
45523;BME280;31254;51.680;5.394;2023-05-29T11:08:34;102536.28;;;19.93;43.71
45523;BME280;31254;51.680;5.394;2023-05-29T11:11:04;102528.66;;;20.03;43.34
45523;BME280;31254;51.680;5.394;2023-05-29T11:13:34;102531.06;;;20.31;43.39
45523;BME280;31254;51.680;5.394;2023-05-29T11:16:19;102536.78;;;20.13;43.05
45523;BME280;31254;51.680;5.394;2023-05-29T11:18:47;102491.63;;;20.04;42.97
45523;BME280;31254;51.680;5.394;2023-05-29T11:24:26;102498.53;;;20.41;42.56
45523;BME280;31254;51.680;5.394;2023-05-29T11:26:56;102488.81;;;20.37;43.01
45523;BME280;31254;51.680;5.394;2023-05-29T11:29:28;102524.47;;;20.65;42.55
45523;BME280;31254;51.680;5.394;2023-05-29T11:31:58;102508.22;;;20.70;42.56
45523;BME280;31254;51.680;5.394;2023-05-29T11:34:29;102524.47;;;20.65;42.33
45523;BME280;31254;51.680;5.394;2023-05-29T11:37:01;102523.63;;;20.40;42.85
45523;BME280;31254;51.680;5.394;2023-05-29T11:39:28;102487.81;;;20.14;42.57
45523;BME280;31254;51.680;5.394;2023-05-29T11:41:55;102523.44;;;20.50;42.46
45523;BME280;31254;51.680;5.394;2023-05-29T11:44:25;102489.69;;;20.05;42.46
45523;BME280;31254;51.680;5.394;2023-05-29T11:47:03;102516.38;;;20.22;42.45
45523;BME280;31254;51.680;5.394;2023-05-29T11:49:33;102488.16;;;20.02;42.15
45523;BME280;31254;51.680;5.394;2023-05-29T11:52:10;102491.25;;;20.16;42.23
45523;BME280;31254;51.680;5.394;2023-05-29T11:54:41;102521.03;;;20.46;42.20
45523;BME280;31254;51.680;5.394;2023-05-29T11:57:22;102507.88;;;20.40;41.63
45523;BME280;31254;51.680;5.394;2023-05-29T11:59:51;102512.91;;;20.37;41.25
45523;BME280;31254;51.680;5.394;2023-05-29T12:02:19;102497.47;;;20.51;41.47
45523;BME280;31254;51.680;5.394;2023-05-29T12:05:03;102509.91;;;20.55;40.76
45523;BME280;31254;51.680;5.394;2023-05-29T12:07:31;102517.56;;;20.69;40.89
45523;BME280;31254;51.680;5.394;2023-05-29T12:10:15;102480.13;;;20.73;40.45
45523;BME280;31254;51.680;5.394;2023-05-29T12:12:47;102508.31;;;20.93;39.48
45523;BME280;31254;51.680;5.394;2023-05-29T12:15:14;102510.59;;;20.81;39.59
45523;BME280;31254;51.680;5.394;2023-05-29T12:17:43;102509.84;;;20.96;38.75
45523;BME280;31254;51.680;5.394;2023-05-29T12:20:12;102464.00;;;20.60;38.43
45523;BME280;31254;51.680;5.394;2023-05-29T12:22:42;102513.38;;;20.65;37.37
45523;BME280;31254;51.680;5.394;2023-05-29T12:27:48;102512.34;;;20.74;38.28
45523;BME280;31254;51.680;5.394;2023-05-29T12:32:58;102499.13;;;20.85;37.66
45523;BME280;31254;51.680;5.394;2023-05-29T12:35:29;102503.31;;;20.80;38.18
45523;BME280;31254;51.680;5.394;2023-05-29T12:40:29;102483.25;;;20.62;38.04
45523;BME280;31254;51.680;5.394;2023-05-29T12:43:02;102504.84;;;20.91;37.89
45523;BME280;31254;51.680;5.394;2023-05-29T12:45:33;102510.03;;;20.86;38.18
45523;BME280;31254;51.680;5.394;2023-05-29T12:48:04;102491.22;;;20.73;38.41
45523;BME280;31254;51.680;5.394;2023-05-29T12:53:06;102525.16;;;20.75;37.46
45523;BME280;31254;51.680;5.394;2023-05-29T12:55:36;102509.75;;;20.73;37.75
45523;BME280;31254;51.680;5.394;2023-05-29T12:58:07;102508.91;;;20.64;37.32
45523;BME280;31254;51.680;5.394;2023-05-29T13:00:35;102507.84;;;20.73;37.53
45523;BME280;31254;51.680;5.394;2023-05-29T13:03:02;102462.63;;;20.64;37.67
45523;BME280;31254;51.680;5.394;2023-05-29T13:05:30;102509.09;;;21.10;37.87
45523;BME280;31254;51.680;5.394;2023-05-29T13:07:58;102480.78;;;20.84;37.34
45523;BME280;31254;51.680;5.394;2023-05-29T13:10:26;102486.72;;;20.64;36.36
45523;BME280;31254;51.680;5.394;2023-05-29T13:12:54;102499.19;;;20.68;37.09
45523;BME280;31254;51.680;5.394;2023-05-29T13:15:26;102495.66;;;20.82;37.29
45523;BME280;31254;51.680;5.394;2023-05-29T13:17:53;102514.22;;;20.82;37.09
45523;BME280;31254;51.680;5.394;2023-05-29T13:20:20;102509.56;;;20.74;36.54
45523;BME280;31254;51.680;5.394;2023-05-29T13:22:47;102513.56;;;20.63;36.74
45523;BME280;31254;51.680;5.394;2023-05-29T13:25:16;102507.84;;;20.57;36.30
45523;BME280;31254;51.680;5.394;2023-05-29T13:27:45;102509.75;;;20.64;37.15
45523;BME280;31254;51.680;5.394;2023-05-29T13:30:13;102488.13;;;20.43;37.28
45523;BME280;31254;51.680;5.394;2023-05-29T13:32:41;102509.59;;;20.50;37.28